sensor_id;sensor_type;location;lat;lon;timestamp;pressure;altitude;pressure_sealevel;temperature;humidity
54876;BME280;40764;48.472;8.166;2022-09-16T00:00:57;97717.81;;;14.27;99.47
54876;BME280;40764;48.472;8.166;2022-09-16T00:06:58;97719.22;;;14.34;99.06
54876;BME280;40764;48.472;8.166;2022-09-16T00:12:58;97716.28;;;14.39;99.40
54876;BME280;40764;48.472;8.166;2022-09-16T00:18:59;97707.75;;;14.32;99.63
54876;BME280;40764;48.472;8.166;2022-09-16T00:24:59;97709.09;;;14.25;99.92
54876;BME280;40764;48.472;8.166;2022-09-16T00:31:01;97710.09;;;14.12;100.00
54876;BME280;40764;48.472;8.166;2022-09-16T00:37:01;97710.47;;;14.02;100.00
54876;BME280;40764;48.472;8.166;2022-09-16T00:43:02;97699.41;;;14.19;100.00
54876;BME280;40764;48.472;8.166;2022-09-16T00:49:29;97706.84;;;14.19;100.00
54876;BME280;40764;48.472;8.166;2022-09-16T00:55:33;97700.66;;;13.92;100.00
54876;BME280;40764;48.472;8.166;2022-09-16T01:01:34;97701.09;;;14.03;100.00
54876;BME280;40764;48.472;8.166;2022-09-16T01:07:40;97698.69;;;14.02;100.00
54876;BME280;40764;48.472;8.166;2022-09-16T01:13:42;97692.09;;;13.94;99.74
54876;BME280;40764;48.472;8.166;2022-09-16T01:19:57;97706.69;;;13.77;100.00
54876;BME280;40764;48.472;8.166;2022-09-16T01:26:28;97693.38;;;13.97;100.00
54876;BME280;40764;48.472;8.166;2022-09-16T01:39:37;97689.34;;;13.85;100.00
54876;BME280;40764;48.472;8.166;2022-09-16T01:52:28;97689.94;;;13.61;100.00
54876;BME280;40764;48.472;8.166;2022-09-16T01:58:39;97682.47;;;13.71;100.00
54876;BME280;40764;48.472;8.166;2022-09-16T02:04:46;97668.41;;;13.72;100.00
54876;BME280;40764;48.472;8.166;2022-09-16T02:10:54;97675.66;;;13.77;100.00
54876;BME280;40764;48.472;8.166;2022-09-16T02:17:00;97676.59;;;13.89;99.82
54876;BME280;40764;48.472;8.166;2022-09-16T02:23:11;97682.72;;;13.95;99.46
54876;BME280;40764;48.472;8.166;2022-09-16T02:29:16;97682.22;;;13.93;98.76
54876;BME280;40764;48.472;8.166;2022-09-16T02:35:19;97674.19;;;13.88;99.37
54876;BME280;40764;48.472;8.166;2022-09-16T02:41:21;97674.81;;;13.93;100.00
54876;BME280;40764;48.472;8.166;2022-09-16T02:53:37;97662.69;;;13.86;100.00
54876;BME280;40764;48.472;8.166;2022-09-16T02:59:40;97655.09;;;13.91;100.00
54876;BME280;40764;48.472;8.166;2022-09-16T03:12:12;97662.09;;;14.10;99.48
54876;BME280;40764;48.472;8.166;2022-09-16T03:25:02;97653.97;;;14.22;99.03
54876;BME280;40764;48.472;8.166;2022-09-16T03:31:08;97640.78;;;14.07;100.00
54876;BME280;40764;48.472;8.166;2022-09-16T03:37:12;97637.94;;;13.94;100.00
54876;BME280;40764;48.472;8.166;2022-09-16T03:43:15;97633.34;;;14.07;100.00
54876;BME280;40764;48.472;8.166;2022-09-16T03:49:15;97640.09;;;14.18;100.00
54876;BME280;40764;48.472;8.166;2022-09-16T03:55:16;97635.41;;;14.19;100.00
54876;BME280;40764;48.472;8.166;2022-09-16T04:01:17;97627.16;;;14.19;100.00
54876;BME280;40764;48.472;8.166;2022-09-16T04:07:18;97621.47;;;14.15;100.00
54876;BME280;40764;48.472;8.166;2022-09-16T04:13:18;97622.47;;;14.11;100.00
54876;BME280;40764;48.472;8.166;2022-09-16T04:19:18;97620.22;;;14.13;100.00
54876;BME280;40764;48.472;8.166;2022-09-16T04:25:19;97618.50;;;14.29;100.00
54876;BME280;40764;48.472;8.166;2022-09-16T04:31:19;97617.97;;;14.36;99.84
54876;BME280;40764;48.472;8.166;2022-09-16T04:37:20;97614.56;;;14.39;99.68
54876;BME280;40764;48.472;8.166;2022-09-16T04:43:20;97600.81;;;14.39;99.86
54876;BME280;40764;48.472;8.166;2022-09-16T04:49:20;97598.19;;;14.42;99.50
54876;BME280;40764;48.472;8.166;2022-09-16T04:55:21;97602.13;;;14.62;99.23
54876;BME280;40764;48.472;8.166;2022-09-16T05:01:24;97612.38;;;14.74;97.81
54876;BME280;40764;48.472;8.166;2022-09-16T05:07:27;97614.00;;;14.75;98.38
54876;BME280;40764;48.472;8.166;2022-09-16T05:13:28;97609.50;;;14.49;98.74
54876;BME280;40764;48.472;8.166;2022-09-16T05:19:29;97610.53;;;14.36;100.00
54876;BME280;40764;48.472;8.166;2022-09-16T05:25:29;97604.19;;;14.44;100.00
54876;BME280;40764;48.472;8.166;2022-09-16T05:31:32;97604.94;;;14.53;100.00
54876;BME280;40764;48.472;8.166;2022-09-16T05:37:32;97603.47;;;14.77;99.87
54876;BME280;40764;48.472;8.166;2022-09-16T05:43:33;97608.28;;;14.59;100.00
54876;BME280;40764;48.472;8.166;2022-09-16T05:49:34;97608.09;;;14.64;100.00
54876;BME280;40764;48.472;8.166;2022-09-16T05:55:34;97610.13;;;14.76;99.97
54876;BME280;40764;48.472;8.166;2022-09-16T06:01:34;97615.41;;;14.60;99.32
54876;BME280;40764;48.472;8.166;2022-09-16T06:07:35;97633.19;;;14.63;98.76
54876;BME280;40764;48.472;8.166;2022-09-16T06:13:36;97631.59;;;14.32;97.87
54876;BME280;40764;48.472;8.166;2022-09-16T06:19:36;97635.72;;;14.17;96.66
54876;BME280;40764;48.472;8.166;2022-09-16T06:25:37;97639.44;;;14.42;95.53
54876;BME280;40764;48.472;8.166;2022-09-16T06:31:37;97657.66;;;14.26;94.89
54876;BME280;40764;48.472;8.166;2022-09-16T06:37:38;97645.06;;;14.25;93.47
54876;BME280;40764;48.472;8.166;2022-09-16T06:43:39;97653.09;;;14.01;93.54
54876;BME280;40764;48.472;8.166;2022-09-16T06:49:39;97665.09;;;13.96;93.22
54876;BME280;40764;48.472;8.166;2022-09-16T06:55:39;97671.06;;;13.98;93.37
54876;BME280;40764;48.472;8.166;2022-09-16T07:01:40;97673.19;;;13.92;92.83
54876;BME280;40764;48.472;8.166;2022-09-16T07:07:40;97677.06;;;13.91;93.21
54876;BME280;40764;48.472;8.166;2022-09-16T07:13:42;97675.47;;;13.90;93.71
54876;BME280;40764;48.472;8.166;2022-09-16T07:19:42;97689.63;;;14.01;94.21
54876;BME280;40764;48.472;8.166;2022-09-16T07:25:43;97693.56;;;13.91;95.59
54876;BME280;40764;48.472;8.166;2022-09-16T07:31:44;97704.28;;;13.58;97.68
54876;BME280;40764;48.472;8.166;2022-09-16T07:37:44;97701.13;;;13.94;96.02
54876;BME280;40764;48.472;8.166;2022-09-16T07:43:45;97704.06;;;13.89;96.69
54876;BME280;40764;48.472;8.166;2022-09-16T07:49:46;97708.75;;;13.80;94.87
54876;BME280;40764;48.472;8.166;2022-09-16T07:55:46;97713.03;;;14.07;96.59
54876;BME280;40764;48.472;8.166;2022-09-16T08:01:48;97725.50;;;14.43;93.40
54876;BME280;40764;48.472;8.166;2022-09-16T08:07:48;97728.38;;;14.08;93.72
54876;BME280;40764;48.472;8.166;2022-09-16T08:13:49;97746.00;;;14.07;96.58
54876;BME280;40764;48.472;8.166;2022-09-16T08:19:49;97738.44;;;14.04;96.63
54876;BME280;40764;48.472;8.166;2022-09-16T08:25:59;97741.22;;;14.34;93.25
54876;BME280;40764;48.472;8.166;2022-09-16T08:32:00;97727.09;;;14.73;92.79
54876;BME280;40764;48.472;8.166;2022-09-16T08:38:00;97737.63;;;14.50;94.33
54876;BME280;40764;48.472;8.166;2022-09-16T08:50:28;97740.03;;;14.81;89.52
54876;BME280;40764;48.472;8.166;2022-09-16T08:56:32;97744.72;;;15.02;90.09
54876;BME280;40764;48.472;8.166;2022-09-16T09:09:13;97757.16;;;15.08;87.50
54876;BME280;40764;48.472;8.166;2022-09-16T09:15:57;97766.63;;;15.40;86.35
54876;BME280;40764;48.472;8.166;2022-09-16T09:40:53;97778.72;;;15.68;84.05
54876;BME280;40764;48.472;8.166;2022-09-16T09:46:59;97769.31;;;15.82;84.37
54876;BME280;40764;48.472;8.166;2022-09-16T10:05:24;97776.88;;;16.18;78.78
54876;BME280;40764;48.472;8.166;2022-09-16T10:11:30;97779.31;;;16.31;77.56
54876;BME280;40764;48.472;8.166;2022-09-16T10:17:32;97775.31;;;16.29;76.56
54876;BME280;40764;48.472;8.166;2022-09-16T10:23:33;97776.81;;;16.51;76.74
54876;BME280;40764;48.472;8.166;2022-09-16T10:29:34;97780.34;;;16.27;77.35
54876;BME280;40764;48.472;8.166;2022-09-16T10:35:36;97774.59;;;16.44;76.58
54876;BME280;40764;48.472;8.166;2022-09-16T10:41:42;97772.66;;;16.45;75.54
54876;BME280;40764;48.472;8.166;2022-09-16T10:47:50;97774.38;;;16.37;74.37
54876;BME280;40764;48.472;8.166;2022-09-16T10:54:00;97770.75;;;16.82;74.24
54876;BME280;40764;48.472;8.166;2022-09-16T11:00:11;97766.06;;;17.22;72.19
54876;BME280;40764;48.472;8.166;2022-09-16T11:06:36;97755.34;;;17.33;73.04
54876;BME280;40764;48.472;8.166;2022-09-16T11:12:58;97748.31;;;17.63;70.76
54876;BME280;40764;48.472;8.166;2022-09-16T11:31:55;97771.50;;;17.19;69.41
54876;BME280;40764;48.472;8.166;2022-09-16T11:38:09;97773.72;;;16.64;70.23
54876;BME280;40764;48.472;8.166;2022-09-16T11:57:39;97794.44;;;16.01;69.89
54876;BME280;40764;48.472;8.166;2022-09-16T12:03:54;97778.56;;;15.98;67.49
54876;BME280;40764;48.472;8.166;2022-09-16T12:10:20;97776.56;;;15.86;77.56
54876;BME280;40764;48.472;8.166;2022-09-16T12:16:42;97772.53;;;16.41;75.21
54876;BME280;40764;48.472;8.166;2022-09-16T12:22:48;97771.28;;;16.99;70.68
54876;BME280;40764;48.472;8.166;2022-09-16T12:28:54;97769.25;;;16.72;66.94
54876;BME280;40764;48.472;8.166;2022-09-16T12:35:13;97773.00;;;17.04;67.07
54876;BME280;40764;48.472;8.166;2022-09-16T12:47:43;97770.41;;;16.83;65.34
54876;BME280;40764;48.472;8.166;2022-09-16T12:54:27;97758.38;;;17.56;61.29
54876;BME280;40764;48.472;8.166;2022-09-16T13:00:32;97755.59;;;17.56;60.69
54876;BME280;40764;48.472;8.166;2022-09-16T13:06:39;97747.03;;;18.33;58.85
54876;BME280;40764;48.472;8.166;2022-09-16T13:12:56;97748.75;;;17.78;59.96
54876;BME280;40764;48.472;8.166;2022-09-16T13:19:28;97741.56;;;17.21;60.33
54876;BME280;40764;48.472;8.166;2022-09-16T13:25:52;97740.31;;;17.18;62.01
54876;BME280;40764;48.472;8.166;2022-09-16T13:31:56;97745.69;;;17.67;61.57
54876;BME280;40764;48.472;8.166;2022-09-16T13:37:58;97736.97;;;17.81;62.50
54876;BME280;40764;48.472;8.166;2022-09-16T13:44:00;97745.25;;;17.53;62.18
54876;BME280;40764;48.472;8.166;2022-09-16T13:56:40;97743.25;;;17.65;60.70
54876;BME280;40764;48.472;8.166;2022-09-16T14:03:23;97738.19;;;17.40;56.27
54876;BME280;40764;48.472;8.166;2022-09-16T14:09:54;97728.06;;;17.31;59.35
54876;BME280;40764;48.472;8.166;2022-09-16T14:15:58;97733.69;;;17.75;59.14
54876;BME280;40764;48.472;8.166;2022-09-16T14:28:14;97721.69;;;17.99;58.24
54876;BME280;40764;48.472;8.166;2022-09-16T14:34:33;97726.91;;;17.73;59.11
54876;BME280;40764;48.472;8.166;2022-09-16T14:40:37;97719.53;;;17.64;59.48
54876;BME280;40764;48.472;8.166;2022-09-16T14:47:03;97721.44;;;17.48;57.71
54876;BME280;40764;48.472;8.166;2022-09-16T14:53:04;97725.44;;;17.35;58.13
54876;BME280;40764;48.472;8.166;2022-09-16T14:59:08;97713.56;;;16.94;60.11
54876;BME280;40764;48.472;8.166;2022-09-16T15:11:26;97707.63;;;16.56;62.10
54876;BME280;40764;48.472;8.166;2022-09-16T15:17:28;97710.13;;;16.36;62.61
54876;BME280;40764;48.472;8.166;2022-09-16T15:23:29;97704.28;;;16.62;62.24
54876;BME280;40764;48.472;8.166;2022-09-16T15:29:33;97711.19;;;16.56;63.81
54876;BME280;40764;48.472;8.166;2022-09-16T15:35:34;97708.63;;;16.76;64.31
54876;BME280;40764;48.472;8.166;2022-09-16T15:41:35;97702.09;;;16.68;63.35
54876;BME280;40764;48.472;8.166;2022-09-16T15:47:45;97717.41;;;16.53;65.44
54876;BME280;40764;48.472;8.166;2022-09-16T15:53:49;97709.47;;;16.27;67.26
54876;BME280;40764;48.472;8.166;2022-09-16T16:00:01;97715.53;;;16.08;68.58
54876;BME280;40764;48.472;8.166;2022-09-16T16:06:15;97711.72;;;16.13;68.34
54876;BME280;40764;48.472;8.166;2022-09-16T16:12:15;97713.69;;;16.00;70.08
54876;BME280;40764;48.472;8.166;2022-09-16T16:18:16;97713.31;;;15.90;72.24
54876;BME280;40764;48.472;8.166;2022-09-16T16:24:16;97717.28;;;15.68;73.00
54876;BME280;40764;48.472;8.166;2022-09-16T16:30:17;97714.00;;;15.87;71.07
54876;BME280;40764;48.472;8.166;2022-09-16T16:36:18;97714.25;;;15.94;72.74
54876;BME280;40764;48.472;8.166;2022-09-16T16:42:19;97725.09;;;15.66;73.49
54876;BME280;40764;48.472;8.166;2022-09-16T16:48:20;97735.78;;;15.46;73.90
54876;BME280;40764;48.472;8.166;2022-09-16T16:54:21;97737.25;;;15.44;74.69
54876;BME280;40764;48.472;8.166;2022-09-16T17:00:21;97736.00;;;15.21;75.72
54876;BME280;40764;48.472;8.166;2022-09-16T17:06:21;97738.75;;;15.21;73.73
54876;BME280;40764;48.472;8.166;2022-09-16T17:12:22;97747.13;;;15.03;75.53
54876;BME280;40764;48.472;8.166;2022-09-16T17:18:22;97741.69;;;14.95;76.70
54876;BME280;40764;48.472;8.166;2022-09-16T17:24:22;97749.06;;;14.82;75.15
54876;BME280;40764;48.472;8.166;2022-09-16T17:30:23;97751.22;;;14.76;73.14
54876;BME280;40764;48.472;8.166;2022-09-16T17:36:24;97751.28;;;14.88;69.29
54876;BME280;40764;48.472;8.166;2022-09-16T17:42:25;97753.44;;;14.83;67.40
54876;BME280;40764;48.472;8.166;2022-09-16T17:48:25;97764.47;;;14.74;66.78
54876;BME280;40764;48.472;8.166;2022-09-16T17:54:26;97780.03;;;14.70;65.96
54876;BME280;40764;48.472;8.166;2022-09-16T18:00:26;97788.94;;;14.76;66.44
54876;BME280;40764;48.472;8.166;2022-09-16T18:06:30;97808.69;;;14.69;67.04
54876;BME280;40764;48.472;8.166;2022-09-16T18:12:31;97833.22;;;14.45;65.48
54876;BME280;40764;48.472;8.166;2022-09-16T18:18:31;97836.50;;;14.30;66.09
54876;BME280;40764;48.472;8.166;2022-09-16T18:24:32;97830.03;;;14.25;65.80
54876;BME280;40764;48.472;8.166;2022-09-16T18:30:32;97827.00;;;14.18;67.17
54876;BME280;40764;48.472;8.166;2022-09-16T18:36:32;97836.53;;;14.12;66.63
54876;BME280;40764;48.472;8.166;2022-09-16T18:42:35;97834.72;;;14.16;66.14
54876;BME280;40764;48.472;8.166;2022-09-16T18:48:36;97843.16;;;14.11;66.03
54876;BME280;40764;48.472;8.166;2022-09-16T18:54:37;97844.03;;;13.77;67.21
54876;BME280;40764;48.472;8.166;2022-09-16T19:00:37;97835.00;;;13.68;68.81
54876;BME280;40764;48.472;8.166;2022-09-16T19:06:40;97852.25;;;13.77;68.06
54876;BME280;40764;48.472;8.166;2022-09-16T19:12:41;97859.72;;;13.59;69.31
54876;BME280;40764;48.472;8.166;2022-09-16T19:18:41;97858.88;;;13.85;67.21
54876;BME280;40764;48.472;8.166;2022-09-16T19:24:42;97858.06;;;13.58;69.57
54876;BME280;40764;48.472;8.166;2022-09-16T19:30:43;97868.75;;;13.60;68.62
54876;BME280;40764;48.472;8.166;2022-09-16T19:36:43;97868.91;;;13.38;70.48
54876;BME280;40764;48.472;8.166;2022-09-16T19:42:44;97866.75;;;13.17;73.15
54876;BME280;40764;48.472;8.166;2022-09-16T19:48:46;97866.94;;;13.21;73.60
54876;BME280;40764;48.472;8.166;2022-09-16T19:54:47;97870.13;;;13.06;75.22
54876;BME280;40764;48.472;8.166;2022-09-16T20:00:48;97879.97;;;13.15;75.35
54876;BME280;40764;48.472;8.166;2022-09-16T20:06:49;97888.50;;;13.05;76.67
54876;BME280;40764;48.472;8.166;2022-09-16T20:12:49;97903.03;;;13.06;75.09
54876;BME280;40764;48.472;8.166;2022-09-16T20:18:53;97889.41;;;13.40;72.49
54876;BME280;40764;48.472;8.166;2022-09-16T20:24:53;97887.47;;;13.49;72.96
54876;BME280;40764;48.472;8.166;2022-09-16T20:30:54;97890.81;;;13.20;75.40
54876;BME280;40764;48.472;8.166;2022-09-16T20:36:54;97893.94;;;12.88;78.42
54876;BME280;40764;48.472;8.166;2022-09-16T20:42:54;97896.00;;;12.82;78.34
54876;BME280;40764;48.472;8.166;2022-09-16T20:48:57;97899.28;;;12.53;79.50
54876;BME280;40764;48.472;8.166;2022-09-16T20:54:58;97902.69;;;12.59;81.40
54876;BME280;40764;48.472;8.166;2022-09-16T21:07:05;97911.06;;;12.54;82.74
54876;BME280;40764;48.472;8.166;2022-09-16T21:13:06;97916.06;;;12.60;82.17
54876;BME280;40764;48.472;8.166;2022-09-16T21:19:08;97926.94;;;12.43;83.74
54876;BME280;40764;48.472;8.166;2022-09-16T21:25:08;97937.38;;;12.32;84.52
54876;BME280;40764;48.472;8.166;2022-09-16T21:31:12;97941.22;;;12.31;86.08
54876;BME280;40764;48.472;8.166;2022-09-16T21:37:12;97950.00;;;12.42;86.17
54876;BME280;40764;48.472;8.166;2022-09-16T21:43:12;97947.03;;;12.07;86.55
54876;BME280;40764;48.472;8.166;2022-09-16T21:49:15;97959.72;;;12.26;85.22
54876;BME280;40764;48.472;8.166;2022-09-16T21:55:24;97952.63;;;12.02;86.83
54876;BME280;40764;48.472;8.166;2022-09-16T22:01:27;97954.13;;;12.31;87.05
54876;BME280;40764;48.472;8.166;2022-09-16T22:07:29;97953.25;;;12.44;85.24
54876;BME280;40764;48.472;8.166;2022-09-16T22:13:30;97953.13;;;12.49;85.88
54876;BME280;40764;48.472;8.166;2022-09-16T22:19:31;97952.44;;;12.44;86.20
54876;BME280;40764;48.472;8.166;2022-09-16T22:25:33;97957.63;;;12.45;86.57
54876;BME280;40764;48.472;8.166;2022-09-16T22:31:36;97957.53;;;12.36;87.22
54876;BME280;40764;48.472;8.166;2022-09-16T22:37:36;97949.75;;;12.52;86.07
54876;BME280;40764;48.472;8.166;2022-09-16T22:43:38;97956.34;;;12.51;86.22
54876;BME280;40764;48.472;8.166;2022-09-16T22:49:39;97947.38;;;12.37;87.56
54876;BME280;40764;48.472;8.166;2022-09-16T22:55:39;97936.72;;;12.58;85.65
54876;BME280;40764;48.472;8.166;2022-09-16T23:01:40;97931.94;;;12.41;86.08
54876;BME280;40764;48.472;8.166;2022-09-16T23:07:40;97944.28;;;12.30;88.02
54876;BME280;40764;48.472;8.166;2022-09-16T23:13:41;97943.84;;;12.14;88.99
54876;BME280;40764;48.472;8.166;2022-09-16T23:19:42;97947.50;;;12.09;89.95
54876;BME280;40764;48.472;8.166;2022-09-16T23:25:42;97948.72;;;12.17;89.43
54876;BME280;40764;48.472;8.166;2022-09-16T23:31:43;97956.00;;;11.99;88.42
54876;BME280;40764;48.472;8.166;2022-09-16T23:37:44;97944.34;;;11.94;87.36
54876;BME280;40764;48.472;8.166;2022-09-16T23:43:47;97957.66;;;11.87;85.78
54876;BME280;40764;48.472;8.166;2022-09-16T23:49:47;97960.84;;;12.25;84.57
54876;BME280;40764;48.472;8.166;2022-09-16T23:55:48;97964.53;;;12.20;83.38
